Time;durP1;ratioP1;P1;durP2;ratioP2;P2;SDS_P1;SDS_P2;PMS_P1;PMS_P2;Temp;Humidity;BMP_temperature;BMP_pressure;BME280_temperature;BME280_humidity;BME280_pressure;Samples;Min_cycle;Max_cycle;Signal;HPM_P1;HPM_P2
2023/02/13 00:02:20;;;;;;;8.40;2.00;;;25.80;63.10;;;;;;4123341;28;20049;-65
2023/02/13 00:04:43;;;;;;;7.68;1.90;;;25.90;63.00;;;;;;4121072;28;20752;-66
2023/02/13 00:07:05;;;;;;;6.00;1.52;;;25.90;63.00;;;;;;4119730;28;20046;-66
2023/02/13 00:09:27;;;;;;;4.63;1.85;;;26.00;62.90;;;;;;4123179;28;20034;-66
2023/02/13 00:11:50;;;;;;;5.07;1.70;;;26.00;62.80;;;;;;4123629;28;20548;-71
2023/02/13 00:14:12;;;;;;;8.40;2.42;;;26.00;62.70;;;;;;4123237;28;20046;-72
2023/02/13 00:16:35;;;;;;;8.40;2.13;;;26.10;62.80;;;;;;4118640;28;20069;-74
2023/02/13 00:18:57;;;;;;;5.90;1.83;;;26.10;62.20;;;;;;4123927;28;20061;-73
2023/02/13 00:21:20;;;;;;;5.00;1.80;;;26.10;63.10;;;;;;4123890;28;20065;-74
2023/02/13 00:23:42;;;;;;;6.30;1.80;;;26.10;62.40;;;;;;4118965;28;20574;-77
2023/02/13 00:26:11;;;;;;;6.72;2.05;;;26.20;62.30;;;;;;4121475;28;20084;-72
2023/02/13 00:28:33;;;;;;;4.57;1.83;;;26.20;62.30;;;;;;4123521;28;20042;-74
2023/02/13 00:31:07;;;;;;;6.78;2.25;;;26.30;62.40;;;;;;4120633;28;20555;-75
2023/02/13 00:33:29;;;;;;;6.18;2.10;;;26.30;62.10;;;;;;4120487;28;20034;-71
2023/02/13 00:35:51;;;;;;;7.50;2.10;;;26.30;62.10;;;;;;4115744;28;20101;-74
2023/02/13 00:38:14;;;;;;;4.60;1.85;;;26.30;62.00;;;;;;4112364;28;20145;-75
2023/02/13 00:40:36;;;;;;;7.35;1.88;;;26.40;62.00;;;;;;4118509;28;20034;-72
2023/02/13 00:42:58;;;;;;;11.27;2.03;;;26.40;61.90;;;;;;4119254;28;20046;-74
2023/02/13 00:45:21;;;;;;;7.65;1.90;;;26.40;61.80;;;;;;4121513;28;20030;-71
2023/02/13 00:47:43;;;;;;;6.30;1.98;;;26.50;61.90;;;;;;4114503;28;20046;-72
2023/02/13 00:50:06;;;;;;;8.38;2.30;;;26.50;61.60;;;;;;4121921;28;20475;-73
2023/02/13 00:52:29;;;;;;;4.32;1.80;;;26.50;61.60;;;;;;4121809;28;20058;-72
2023/02/13 00:54:51;;;;;;;6.95;2.05;;;26.50;61.60;;;;;;4121705;28;20121;-75
2023/02/13 00:57:13;;;;;;;5.00;1.73;;;26.50;61.50;;;;;;4114545;28;20054;-75
2023/02/13 00:59:36;;;;;;;6.00;2.15;;;26.60;61.90;;;;;;4118975;28;20428;-73
2023/02/13 01:01:58;;;;;;;4.57;2.03;;;26.60;61.40;;;;;;4108533;28;20117;-76
2023/02/13 01:04:20;;;;;;;5.93;2.13;;;26.60;61.20;;;;;;4109529;28;20034;-78
2023/02/13 01:06:43;;;;;;;5.60;1.92;;;26.60;60.80;;;;;;4120837;28;20066;-74
2023/02/13 01:09:05;;;;;;;5.22;2.03;;;26.60;60.60;;;;;;4124671;28;20161;-75
2023/02/13 01:11:28;;;;;;;6.95;2.33;;;26.60;60.30;;;;;;4126102;28;20515;-72
2023/02/13 01:13:50;;;;;;;6.78;2.50;;;26.60;60.10;;;;;;4123393;28;20129;-74
2023/02/13 01:16:14;;;;;;;8.23;2.53;;;26.60;60.20;;;;;;4123996;28;20050;-72
2023/02/13 01:18:38;;;;;;;9.02;2.67;;;26.60;60.10;;;;;;4121436;28;20077;-74
2023/02/13 01:21:06;;;;;;;5.45;2.60;;;26.60;60.10;;;;;;4120120;28;20050;-76
2023/02/13 01:23:34;;;;;;;6.80;2.28;;;26.40;58.10;;;;;;4119783;28;20042;-72
2023/02/13 01:25:56;;;;;;;5.07;2.20;;;26.20;56.10;;;;;;4120079;28;20041;-73
2023/02/13 01:28:18;;;;;;;5.35;2.40;;;25.90;56.00;;;;;;4118413;28;20050;-73
2023/02/13 01:30:41;;;;;;;4.40;2.05;;;25.70;55.80;;;;;;4118744;28;20030;-73
2023/02/13 01:33:03;;;;;;;4.60;2.00;;;25.60;54.90;;;;;;4120683;28;20129;-73
2023/02/13 01:35:26;;;;;;;3.60;1.73;;;25.40;55.10;;;;;;4117483;28;20038;-74
2023/02/13 01:37:48;;;;;;;4.80;1.95;;;25.20;54.60;;;;;;4122271;28;20092;-72
2023/02/13 01:40:13;;;;;;;4.43;1.98;;;25.10;54.30;;;;;;4122003;28;20038;-72
2023/02/13 01:42:35;;;;;;;5.18;1.83;;;25.00;54.10;;;;;;4119450;28;20552;-64
2023/02/13 01:45:19;;;;;;;3.35;1.67;;;24.90;53.70;;;;;;4134524;28;20135;-64
2023/02/13 01:47:46;;;;;;;4.15;1.90;;;24.80;53.80;;;;;;4115200;28;20051;-65
2023/02/13 01:50:20;;;;;;;3.55;1.70;;;24.60;54.20;;;;;;4112284;28;20030;-67
2023/02/13 01:52:49;;;;;;;6.63;1.90;;;24.50;54.80;;;;;;4117151;28;20046;-68
2023/02/13 01:55:13;;;;;;;3.92;1.77;;;24.40;55.00;;;;;;4119010;28;20042;-69
2023/02/13 01:57:38;;;;;;;4.45;1.90;;;24.20;55.20;;;;;;4118947;28;20082;-67
2023/02/13 02:00:08;;;;;;;3.90;1.88;;;24.20;54.40;;;;;;4113041;28;20080;-70
2023/02/13 02:02:34;;;;;;;5.15;2.20;;;24.00;53.80;;;;;;4113689;28;20046;-69
2023/02/13 02:04:56;;;;;;;4.00;1.90;;;23.90;54.30;;;;;;4122103;28;20066;-69
2023/02/13 02:07:26;;;;;;;3.90;1.83;;;23.80;53.80;;;;;;4122328;28;20039;-69
2023/02/13 02:09:51;;;;;;;5.07;1.95;;;23.70;53.50;;;;;;4126258;28;20825;-68
2023/02/13 02:12:35;;;;;;;4.47;1.90;;;23.60;53.50;;;;;;4122787;28;20074;-68
2023/02/13 02:15:00;;;;;;;6.07;1.93;;;23.50;54.90;;;;;;4124414;28;20050;-68
2023/02/13 02:17:25;;;;;;;3.58;2.05;;;23.40;55.30;;;;;;4125837;28;20045;-67
2023/02/13 02:19:50;;;;;;;4.57;1.60;;;23.30;55.30;;;;;;4123690;28;20504;-66
2023/02/13 02:22:18;;;;;;;4.32;1.90;;;23.20;55.70;;;;;;4124623;28;20050;-67
2023/02/13 02:25:26;;;;;;;4.28;1.83;;;23.10;55.20;;;;;;4117180;28;20054;-66
2023/02/13 02:28:12;;;;;;;3.63;2.28;;;23.00;56.50;;;;;;4113886;28;20193;-65
2023/02/13 02:30:47;;;;;;;4.00;1.73;;;22.90;56.20;;;;;;4123347;28;20042;-65
2023/02/13 02:33:29;;;;;;;4.38;1.90;;;22.80;56.20;;;;;;4123036;28;20054;-65
2023/02/13 02:36:20;;;;;;;4.60;1.98;;;22.80;56.20;;;;;;4120208;28;20035;-63
2023/02/13 02:39:01;;;;;;;4.68;2.05;;;22.70;55.60;;;;;;4122514;28;20046;-64
2023/02/13 02:41:43;;;;;;;6.07;2.22;;;22.60;55.80;;;;;;4122158;28;20121;-65
2023/02/13 02:44:44;;;;;;;4.32;2.28;;;22.50;55.60;;;;;;4097556;28;20042;-63
2023/02/13 02:50:14;;;;;;;4.28;1.90;;;22.40;55.50;;;;;;4122377;28;20081;-64
2023/02/13 02:52:42;;;;;;;3.60;1.88;;;22.30;56.40;;;;;;4122065;28;20042;-63
2023/02/13 02:55:39;;;;;;;3.53;1.80;;;22.30;56.20;;;;;;4113796;28;20516;-67
2023/02/13 03:07:08;;;;;;;4.68;1.98;;;22.00;56.10;;;;;;4120825;28;20047;-65
2023/02/13 03:15:02;;;;;;;4.13;1.77;;;21.80;56.30;;;;;;4119824;28;20408;-65
2023/02/13 03:22:17;;;;;;;4.20;1.77;;;21.70;56.30;;;;;;4116110;28;20370;-63
2023/02/13 03:23:35;;;;;;;4.90;2.10;;;21.60;56.40;;;;;;4113578;28;20108;-63
2023/02/13 03:26:10;;;;;;;3.92;1.75;;;21.50;56.30;;;;;;4126291;28;20072;-66
2023/02/13 03:32:01;;;;;;;3.08;1.90;;;21.50;57.00;;;;;;4115785;28;20057;-66
2023/02/13 03:37:53;;;;;;;4.55;2.05;;;21.40;56.50;;;;;;4118368;28;20034;-66
2023/02/13 03:40:09;;;;;;;4.25;1.70;;;21.30;56.40;;;;;;4118273;28;20073;-66
2023/02/13 03:42:59;;;;;;;5.15;1.95;;;21.30;57.10;;;;;;4118027;28;20085;-65
2023/02/13 03:50:55;;;;;;;4.32;1.92;;;21.20;57.10;;;;;;4119181;28;20756;-66
2023/02/13 03:53:18;;;;;;;5.40;2.27;;;21.10;57.20;;;;;;4109969;28;21567;-63
2023/02/13 04:01:14;;;;;;;8.57;2.45;;;21.00;57.30;;;;;;4110923;28;20050;-64
2023/02/13 04:03:39;;;;;;;5.22;2.00;;;21.00;57.20;;;;;;4118867;28;20153;-64
2023/02/13 04:06:11;;;;;;;5.18;2.05;;;20.90;57.30;;;;;;4117610;28;20041;-63
2023/02/13 04:08:34;;;;;;;4.40;1.70;;;20.90;57.40;;;;;;4116100;28;20061;-63
2023/02/13 04:11:17;;;;;;;5.72;2.28;;;20.90;57.30;;;;;;4117769;28;20038;-77
2023/02/13 04:13:46;;;;;;;2.95;1.63;;;20.90;57.50;;;;;;4119579;28;20080;-74
2023/02/13 04:16:20;;;;;;;4.25;1.65;;;20.90;57.40;;;;;;4120590;28;20040;-79
2023/02/13 04:18:44;;;;;;;4.93;1.77;;;20.80;57.30;;;;;;4114259;28;20956;-79
2023/02/13 04:21:07;;;;;;;3.85;1.80;;;20.80;57.50;;;;;;4118095;28;20145;-78
2023/02/13 04:23:29;;;;;;;3.78;1.75;;;20.70;57.40;;;;;;4119220;28;20046;-77
2023/02/13 04:25:55;;;;;;;3.53;1.58;;;20.70;57.50;;;;;;4103506;28;20046;-74
2023/02/13 04:28:17;;;;;;;5.03;1.70;;;20.70;57.40;;;;;;4102991;28;20078;-75
2023/02/13 04:30:46;;;;;;;4.13;1.83;;;20.70;57.60;;;;;;4107621;28;20043;-75
2023/02/13 04:33:08;;;;;;;5.30;1.75;;;20.70;57.50;;;;;;4105005;28;20046;-78
2023/02/13 04:35:30;;;;;;;3.17;1.45;;;20.70;57.50;;;;;;4099081;28;20042;-78
2023/02/13 04:37:53;;;;;;;4.15;1.73;;;20.60;57.50;;;;;;4106068;28;20457;-76
2023/02/13 04:40:15;;;;;;;4.63;1.88;;;20.60;58.00;;;;;;4094729;28;21496;-76
2023/02/13 04:42:37;;;;;;;3.20;1.60;;;20.60;57.40;;;;;;4094499;28;20070;-74
2023/02/13 04:45:00;;;;;;;3.75;1.70;;;20.60;57.30;;;;;;4107672;28;20030;-77
2023/02/13 04:47:22;;;;;;;4.30;1.80;;;20.60;57.40;;;;;;4100109;28;20039;-77
2023/02/13 04:49:45;;;;;;;3.13;1.60;;;20.50;57.30;;;;;;4094904;28;20322;-79
2023/02/13 04:52:07;;;;;;;3.97;1.85;;;20.50;57.10;;;;;;4101986;28;20222;-79
2023/02/13 04:54:29;;;;;;;6.63;1.88;;;20.40;57.50;;;;;;4087214;28;20050;-80
2023/02/13 04:56:52;;;;;;;3.78;1.67;;;20.40;57.50;;;;;;4113597;28;20480;-80
2023/02/13 04:59:23;;;;;;;3.42;1.80;;;20.40;58.20;;;;;;4111523;28;20602;-77
2023/02/13 05:01:46;;;;;;;4.47;2.05;;;20.30;57.60;;;;;;4106248;28;20358;-78
2023/02/13 05:04:10;;;;;;;4.38;1.95;;;20.30;57.70;;;;;;4108981;28;20421;-77
2023/02/13 05:06:32;;;;;;;3.75;1.73;;;20.30;57.80;;;;;;4110140;28;20042;-80
2023/02/13 05:08:54;;;;;;;4.07;1.60;;;20.30;58.00;;;;;;4113618;28;20074;-78
2023/02/13 05:11:17;;;;;;;4.93;1.65;;;20.30;57.80;;;;;;4098153;28;20103;-80
2023/02/13 05:13:39;;;;;;;4.43;2.28;;;20.20;58.10;;;;;;4111032;28;20157;-77
2023/02/13 05:16:02;;;;;;;5.20;1.73;;;20.20;58.00;;;;;;4107310;28;20046;-78
2023/02/13 05:18:25;;;;;;;4.90;2.17;;;20.10;58.00;;;;;;4109357;28;20086;-78
2023/02/13 05:23:28;;;;;;;3.83;1.52;;;20.10;58.10;;;;;;4106914;28;20046;-77
2023/02/13 05:25:50;;;;;;;3.55;1.55;;;20.10;58.20;;;;;;4118166;28;20047;-80
2023/02/13 05:30:53;;;;;;;4.07;1.98;;;20.00;58.20;;;;;;4124364;28;20602;-81
2023/02/13 05:33:16;;;;;;;3.38;1.60;;;20.00;58.20;;;;;;4127647;28;20180;-76
2023/02/13 05:35:38;;;;;;;4.13;1.63;;;20.00;58.00;;;;;;4126643;28;20452;-76
2023/02/13 05:38:00;;;;;;;2.47;1.33;;;20.00;58.10;;;;;;4124485;28;20085;-74
2023/02/13 05:40:23;;;;;;;4.72;1.98;;;20.00;58.20;;;;;;4126485;28;20378;-76
2023/02/13 05:42:45;;;;;;;4.07;1.60;;;19.90;58.40;;;;;;4126814;28;20611;-74
2023/02/13 05:45:09;;;;;;;3.72;1.80;;;19.90;58.40;;;;;;4124969;28;20361;-75
2023/02/13 05:47:31;;;;;;;6.72;1.80;;;19.90;58.40;;;;;;4121081;28;20039;-76
2023/02/13 05:49:53;;;;;;;4.25;1.75;;;19.90;58.90;;;;;;4126469;28;20038;-73
2023/02/13 05:52:18;;;;;;;5.03;1.88;;;20.00;59.40;;;;;;4117394;28;20102;-74
2023/02/13 05:54:41;;;;;;;3.88;1.65;;;20.20;59.70;;;;;;4121892;28;20500;-80
2023/02/13 05:57:03;;;;;;;4.10;1.92;;;20.40;59.80;;;;;;4120100;28;20058;-77
2023/02/13 05:59:26;;;;;;;4.28;1.65;;;20.70;60.00;;;;;;4122269;28;20046;-75
2023/02/13 06:01:48;;;;;;;5.95;1.50;;;20.90;59.90;;;;;;4119927;28;20137;-76
2023/02/13 06:04:10;;;;;;;4.03;1.55;;;21.10;60.00;;;;;;4119674;28;20046;-72
2023/02/13 06:06:33;;;;;;;3.50;1.45;;;21.40;60.00;;;;;;4127585;28;20038;-74
2023/02/13 06:08:55;;;;;;;3.78;1.50;;;21.50;60.00;;;;;;4130977;28;20041;-78
2023/02/13 06:11:18;;;;;;;3.03;0.80;;;21.70;59.90;;;;;;4119539;28;20034;-78
2023/02/13 06:13:40;;;;;;;3.40;1.15;;;21.80;59.80;;;;;;4114822;28;20060;-78
2023/02/13 06:16:03;;;;;;;2.35;1.02;;;22.00;59.60;;;;;;4122910;28;20062;-80
2023/02/13 06:18:25;;;;;;;22.17;2.20;;;22.00;59.50;;;;;;4114170;28;20051;-81
2023/02/13 06:20:48;;;;;;;3.38;1.38;;;22.20;60.00;;;;;;4113058;28;20031;-78
2023/02/13 06:23:11;;;;;;;3.90;1.67;;;22.30;60.10;;;;;;4119146;28;20042;-79
2023/02/13 06:25:36;;;;;;;11.48;2.10;;;22.40;60.00;;;;;;4123872;28;20515;-76
2023/02/13 06:27:59;;;;;;;9.57;1.83;;;22.50;60.20;;;;;;4130309;28;20045;-78
2023/02/13 06:30:21;;;;;;;6.55;2.00;;;22.50;60.70;;;;;;4129330;28;20042;-79
2023/02/13 06:32:46;;;;;;;6.95;2.10;;;22.50;61.40;;;;;;4116814;28;20049;-77
2023/02/13 06:35:09;;;;;;;5.40;1.98;;;22.50;62.20;;;;;;4120656;28;20038;-76
2023/02/13 06:37:31;;;;;;;8.52;2.45;;;22.50;62.50;;;;;;4116300;28;20805;-80
2023/02/13 06:39:54;;;;;;;6.35;2.00;;;22.60;62.70;;;;;;4121289;28;20046;-80
2023/02/13 06:42:17;;;;;;;6.55;2.00;;;22.60;62.90;;;;;;4120222;28;20104;-83
2023/02/13 06:44:42;;;;;;;7.28;2.40;;;22.70;63.00;;;;;;4118381;28;20042;-76
2023/02/13 06:47:05;;;;;;;6.93;2.25;;;22.80;63.20;;;;;;4118409;28;20046;-75
2023/02/13 06:49:27;;;;;;;8.32;2.60;;;22.80;63.20;;;;;;4116900;28;20038;-75
2023/02/13 06:51:50;;;;;;;5.97;2.00;;;22.90;62.90;;;;;;4121870;28;20042;-74
2023/02/13 06:54:12;;;;;;;5.05;1.40;;;22.90;62.60;;;;;;4118191;28;20046;-72
2023/02/13 06:56:35;;;;;;;3.65;1.42;;;23.00;62.30;;;;;;4120725;28;20081;-74
2023/02/13 06:58:57;;;;;;;4.28;1.40;;;23.00;62.10;;;;;;4116756;28;20057;-75
2023/02/13 07:01:20;;;;;;;3.40;1.58;;;23.10;62.00;;;;;;4122224;28;20093;-75
2023/02/13 07:03:42;;;;;;;5.93;1.95;;;23.10;61.90;;;;;;4118365;28;20515;-71
2023/02/13 07:06:05;;;;;;;4.70;1.40;;;23.20;61.80;;;;;;4121861;28;20575;-78
2023/02/13 07:08:28;;;;;;;4.45;1.50;;;23.20;61.60;;;;;;4124051;28;20042;-76
2023/02/13 07:10:50;;;;;;;3.60;1.30;;;23.30;61.60;;;;;;4121832;28;20046;-73
2023/02/13 07:13:13;;;;;;;3.25;1.33;;;23.30;61.50;;;;;;4121676;28;20445;-73
2023/02/13 07:15:36;;;;;;;8.30;2.25;;;23.30;61.30;;;;;;4122733;28;20101;-70
2023/02/13 07:17:59;;;;;;;4.00;1.33;;;23.40;61.40;;;;;;4121874;28;20144;-69
2023/02/13 07:20:21;;;;;;;3.33;1.60;;;23.50;61.30;;;;;;4123516;28;20112;-70
2023/02/13 07:22:43;;;;;;;4.28;1.38;;;23.50;61.30;;;;;;4114886;28;20053;-71
2023/02/13 07:25:06;;;;;;;2.53;0.82;;;23.50;61.10;;;;;;4116459;28;20198;-73
2023/02/13 07:27:29;;;;;;;3.60;1.15;;;23.50;61.10;;;;;;4122553;28;20042;-71
2023/02/13 07:29:51;;;;;;;2.70;1.10;;;23.60;61.10;;;;;;4119394;28;20034;-71
2023/02/13 07:32:14;;;;;;;3.60;1.17;;;23.60;61.00;;;;;;4120065;28;20528;-71
2023/02/13 07:34:36;;;;;;;4.05;1.33;;;23.60;60.90;;;;;;4118806;28;20042;-69
2023/02/13 07:36:59;;;;;;;2.75;1.02;;;23.70;60.90;;;;;;4123172;28;20054;-71
2023/02/13 07:39:27;;;;;;;4.22;1.52;;;23.70;60.90;;;;;;4125307;28;20042;-70
2023/02/13 07:41:51;;;;;;;5.38;1.50;;;23.70;60.80;;;;;;4122146;28;20492;-72
2023/02/13 07:44:13;;;;;;;4.28;1.08;;;23.80;60.80;;;;;;4123427;28;20781;-69
2023/02/13 07:46:36;;;;;;;5.03;1.23;;;23.80;60.80;;;;;;4134855;28;20226;-69
2023/02/13 07:48:58;;;;;;;2.70;1.10;;;23.80;60.80;;;;;;4123405;28;20136;-66
2023/02/13 07:51:24;;;;;;;3.78;1.08;;;23.80;60.80;;;;;;4122824;28;20046;-68
2023/02/13 07:53:49;;;;;;;3.53;1.05;;;23.80;60.80;;;;;;4120727;28;20057;-68
2023/02/13 07:56:11;;;;;;;5.32;1.48;;;23.90;60.80;;;;;;4113381;28;20053;-70
2023/02/13 07:58:33;;;;;;;3.17;1.38;;;23.90;60.90;;;;;;4116816;28;20054;-68
2023/02/13 08:00:56;;;;;;;4.03;1.35;;;23.90;60.80;;;;;;4114648;28;20039;-68
2023/02/13 08:03:18;;;;;;;4.65;1.58;;;24.00;60.90;;;;;;4141104;23;20049;-63
2023/02/13 08:05:41;;;;;;;3.65;1.40;;;24.00;60.80;;;;;;4135044;28;20034;-62
2023/02/13 08:08:04;;;;;;;3.67;1.40;;;24.00;60.90;;;;;;4135763;28;20084;-61
2023/02/13 08:13:07;;;;;;;3.83;1.45;;;24.00;61.00;;;;;;4134081;28;20041;-64
2023/02/13 08:15:30;;;;;;;3.65;1.42;;;24.00;61.10;;;;;;4137373;28;20609;-64
2023/02/13 08:20:35;;;;;;;7.00;1.80;;;24.10;61.20;;;;;;4133151;28;20058;-64
2023/02/13 08:23:05;;;;;;;4.10;1.40;;;24.10;61.30;;;;;;4131944;28;20144;-64
2023/02/13 08:25:28;;;;;;;3.90;1.40;;;24.10;61.10;;;;;;4132926;28;20073;-64
2023/02/13 08:27:51;;;;;;;4.70;1.73;;;24.20;61.20;;;;;;4128626;28;20046;-64
2023/02/13 08:30:14;;;;;;;5.28;1.50;;;24.10;61.30;;;;;;4129089;28;20054;-64
2023/02/13 08:32:36;;;;;;;4.00;1.50;;;24.20;61.30;;;;;;4117723;28;20557;-64
2023/02/13 08:34:59;;;;;;;4.05;1.45;;;24.20;61.40;;;;;;4174486;22;20061;-36
2023/02/13 08:37:21;;;;;;;4.45;1.38;;;24.20;61.40;;;;;;4103131;28;20077;-36
2023/02/13 08:39:44;;;;;;;4.53;1.55;;;24.20;62.10;;;;;;4115511;28;20156;-37
2023/02/13 08:42:07;;;;;;;5.63;1.50;;;24.20;61.40;;;;;;4113956;28;20035;-36
2023/02/13 08:44:29;;;;;;;4.85;1.40;;;24.20;61.40;;;;;;4115739;28;20039;-37
2023/02/13 08:46:51;;;;;;;3.88;1.60;;;24.20;61.40;;;;;;4116776;28;20045;-35
2023/02/13 08:49:14;;;;;;;4.47;1.63;;;24.20;61.40;;;;;;4119864;28;20198;-36
2023/02/13 08:51:36;;;;;;;3.97;1.27;;;24.20;61.40;;;;;;4113913;28;20048;-36
2023/02/13 08:53:59;;;;;;;4.63;1.50;;;24.30;61.40;;;;;;4122138;28;20061;-36
2023/02/13 08:56:21;;;;;;;4.13;1.40;;;24.30;61.60;;;;;;4121706;28;20052;-36
2023/02/13 08:58:44;;;;;;;3.38;1.08;;;24.30;61.50;;;;;;4116659;28;20141;-36
2023/02/13 09:01:07;;;;;;;4.95;1.38;;;24.30;61.50;;;;;;4114673;28;20046;-37
2023/02/13 09:03:30;;;;;;;3.40;1.35;;;24.30;61.50;;;;;;4119577;28;20042;-47
2023/02/13 09:05:52;;;;;;;4.03;1.55;;;24.30;61.40;;;;;;4117676;28;20046;-46
2023/02/13 09:08:15;;;;;;;4.10;1.25;;;24.30;61.50;;;;;;4121451;28;20030;-49
2023/02/13 09:10:38;;;;;;;4.25;1.58;;;24.30;61.50;;;;;;4118001;28;20074;-46
2023/02/13 09:13:00;;;;;;;4.10;1.67;;;24.30;61.50;;;;;;4117405;28;20062;-45
2023/02/13 09:15:23;;;;;;;2.85;1.30;;;24.30;61.50;;;;;;4120194;28;20133;-49
2023/02/13 09:17:46;;;;;;;3.92;1.13;;;24.30;61.50;;;;;;4123953;28;20338;-37
2023/02/13 09:20:09;;;;;;;3.63;1.38;;;24.40;61.50;;;;;;4117879;28;20034;-36
2023/02/13 09:22:31;;;;;;;3.58;1.77;;;24.40;61.50;;;;;;4119147;28;20168;-37
2023/02/13 09:24:54;;;;;;;4.68;1.58;;;24.40;61.50;;;;;;4119374;28;20072;-35
2023/02/13 09:27:16;;;;;;;3.97;1.52;;;24.40;61.40;;;;;;4120588;28;20114;-36
2023/02/13 09:29:39;;;;;;;3.38;1.23;;;24.40;61.40;;;;;;4122126;28;20188;-36
2023/02/13 09:32:01;;;;;;;2.85;1.25;;;24.40;61.40;;;;;;4117010;28;20151;-36
2023/02/13 09:34:23;;;;;;;3.58;1.20;;;24.30;61.30;;;;;;4121084;28;20041;-36
2023/02/13 09:36:50;;;;;;;3.08;0.98;;;24.30;61.30;;;;;;4119936;28;20482;-37
2023/02/13 09:39:12;;;;;;;1.88;0.90;;;24.40;61.30;;;;;;4113265;28;21463;-36
2023/02/13 09:41:44;;;;;;;2.92;1.08;;;24.40;61.30;;;;;;4117052;28;20034;-36
2023/02/13 09:44:37;;;;;;;2.10;0.88;;;24.40;61.30;;;;;;4115998;28;20038;-36
2023/02/13 09:47:11;;;;;;;2.47;1.00;;;24.40;61.30;;;;;;4117898;28;20137;-37
2023/02/13 09:49:40;;;;;;;2.80;1.25;;;24.40;61.20;;;;;;4118616;28;20049;-36
2023/02/13 09:52:03;;;;;;;2.35;0.90;;;24.40;61.20;;;;;;4117705;28;20034;-36
2023/02/13 09:54:27;;;;;;;2.25;1.00;;;24.40;61.10;;;;;;4113357;28;20034;-36
2023/02/13 09:57:26;;;;;;;2.38;0.90;;;24.40;61.10;;;;;;4114475;28;20467;-36
2023/02/13 10:00:27;;;;;;;3.70;1.00;;;24.40;61.10;;;;;;4113124;28;20078;-39
2023/02/13 10:03:00;;;;;;;3.70;0.90;;;24.40;61.10;;;;;;4120732;28;20487;-36
2023/02/13 10:05:40;;;;;;;1.50;0.70;;;24.40;61.10;;;;;;4117428;28;20057;-36
2023/02/13 10:08:21;;;;;;;1.80;0.80;;;24.40;61.00;;;;;;4123399;28;20043;-38
2023/02/13 10:11:07;;;;;;;1.95;0.85;;;24.40;61.10;;;;;;4111791;28;20046;-38
2023/02/13 10:13:44;;;;;;;1.55;0.70;;;24.40;61.10;;;;;;4115562;28;20045;-37
2023/02/13 10:16:16;;;;;;;2.70;0.80;;;24.40;61.10;;;;;;4116096;28;20038;-43
2023/02/13 10:18:59;;;;;;;1.20;0.55;;;24.40;61.10;;;;;;4116203;28;20553;-37
2023/02/13 10:21:28;;;;;;;4.30;1.45;;;24.40;61.10;;;;;;4109573;28;20044;-48
2023/02/13 10:24:00;;;;;;;1.58;0.88;;;24.40;61.10;;;;;;4116983;28;20405;-47
2023/02/13 10:26:44;;;;;;;2.17;0.90;;;24.40;61.10;;;;;;4121891;28;20144;-47
2023/02/13 10:32:05;;;;;;;2.80;0.90;;;24.50;61.10;;;;;;4113462;28;20111;-47
2023/02/13 10:34:34;;;;;;;0.60;0.40;;;24.40;61.10;;;;;;4117316;28;20051;-48
2023/02/13 10:36:57;;;;;;;1.30;0.70;;;24.50;61.10;;;;;;4118589;28;20048;-47
2023/02/13 10:39:33;;;;;;;1.70;0.60;;;24.50;61.10;;;;;;4120759;28;20092;-48
2023/02/13 10:41:56;;;;;;;1.35;0.45;;;24.50;61.10;;;;;;4124613;28;20056;-47
2023/02/13 10:44:31;;;;;;;0.68;0.32;;;24.50;61.10;;;;;;4131031;28;20081;-46
2023/02/13 10:47:13;;;;;;;1.23;0.57;;;24.40;61.10;;;;;;4122327;28;20356;-47
2023/02/13 10:49:46;;;;;;;1.77;1.02;;;24.50;61.10;;;;;;4124497;28;20388;-47
2023/02/13 10:52:23;;;;;;;1.37;0.57;;;24.50;61.10;;;;;;4132267;28;20113;-48
2023/02/13 10:55:28;;;;;;;1.33;0.60;;;24.50;61.10;;;;;;4120068;28;20715;-41
2023/02/13 10:58:19;;;;;;;3.10;1.20;;;24.50;61.10;;;;;;4118495;28;20108;-40
2023/02/13 11:00:50;;;;;;;5.95;1.05;;;24.50;62.10;;;;;;4123188;28;20053;-39
2023/02/13 11:03:25;;;;;;;4.65;1.25;;;24.50;62.70;;;;;;4124304;28;20053;-39
2023/02/13 11:05:48;;;;;;;5.60;1.33;;;24.50;63.00;;;;;;4126838;28;20034;-37
2023/02/13 11:08:44;;;;;;;4.35;1.35;;;24.50;63.10;;;;;;4122599;28;20391;-38
2023/02/13 11:11:37;;;;;;;9.10;1.52;;;24.50;63.30;;;;;;4125112;28;20707;-39
2023/02/13 11:14:17;;;;;;;5.32;1.45;;;24.60;63.60;;;;;;4123624;28;20335;-37
2023/02/13 11:17:06;;;;;;;5.50;1.30;;;24.60;63.70;;;;;;4125299;28;20249;-38
2023/02/13 11:19:36;;;;;;;5.25;1.80;;;24.60;63.80;;;;;;4118667;28;20117;-42
2023/02/13 11:22:07;;;;;;;10.45;1.63;;;24.70;64.00;;;;;;4121551;28;20556;-39
2023/02/13 11:24:31;;;;;;;6.05;1.65;;;24.70;64.10;;;;;;4131679;28;20049;-39
2023/02/13 11:27:00;;;;;;;7.05;2.15;;;24.70;64.10;;;;;;4127114;28;20129;-39
2023/02/13 11:29:30;;;;;;;7.03;1.90;;;24.70;64.30;;;;;;4128969;28;20826;-38
2023/02/13 11:32:04;;;;;;;3.63;1.33;;;24.70;64.40;;;;;;4126262;28;20075;-39
2023/02/13 11:34:30;;;;;;;9.32;2.40;;;24.70;64.40;;;;;;4130023;28;20042;-38
2023/02/13 11:36:54;;;;;;;5.03;1.80;;;24.80;64.50;;;;;;4126696;28;21559;-38
2023/02/13 11:39:22;;;;;;;7.45;2.10;;;24.80;64.50;;;;;;4128726;28;20117;-41
2023/02/13 11:41:46;;;;;;;6.55;1.88;;;24.80;64.60;;;;;;4133304;28;20041;-38
2023/02/13 11:44:27;;;;;;;6.88;1.90;;;24.80;64.50;;;;;;4127032;28;20128;-38
2023/02/13 11:46:52;;;;;;;7.57;2.00;;;24.80;64.40;;;;;;4122979;28;20038;-37
2023/02/13 11:49:21;;;;;;;9.95;1.98;;;24.80;64.30;;;;;;4129179;28;20033;-40
2023/02/13 11:51:47;;;;;;;7.13;1.75;;;24.80;64.40;;;;;;4127230;28;20163;-37
2023/02/13 11:54:41;;;;;;;7.53;1.80;;;24.90;64.50;;;;;;4130405;28;20154;-43
2023/02/13 11:57:22;;;;;;;8.03;1.83;;;24.90;64.30;;;;;;4130328;28;20044;-44
2023/02/13 11:59:47;;;;;;;6.43;1.60;;;24.90;64.20;;;;;;4125922;28;20092;-38
2023/02/13 12:02:24;;;;;;;5.65;1.67;;;24.90;64.20;;;;;;4129000;28;20038;-39
2023/02/13 12:04:48;;;;;;;3.92;1.60;;;25.00;64.20;;;;;;4126712;28;20103;-39
2023/02/13 12:07:17;;;;;;;5.30;1.52;;;25.00;64.20;;;;;;4127028;28;20100;-37
2023/02/13 12:09:40;;;;;;;3.95;1.10;;;25.00;64.10;;;;;;4129426;28;20043;-38
2023/02/13 12:12:04;;;;;;;3.83;1.85;;;25.00;64.00;;;;;;4131862;28;20073;-39
2023/02/13 12:14:42;;;;;;;3.33;1.35;;;25.00;64.00;;;;;;4129832;28;20416;-37
2023/02/13 12:17:15;;;;;;;11.23;1.20;;;25.10;64.00;;;;;;4130789;28;20044;-37
2023/02/13 12:19:44;;;;;;;5.60;1.40;;;25.10;64.00;;;;;;4123676;28;20141;-37
2023/02/13 12:22:43;;;;;;;5.95;1.30;;;25.10;64.00;;;;;;4129452;28;20560;-41
2023/02/13 12:25:38;;;;;;;2.58;1.02;;;25.10;64.00;;;;;;4131979;28;20516;-38
2023/02/13 12:28:10;;;;;;;6.45;1.88;;;25.10;64.10;;;;;;4128883;28;20046;-40
2023/02/13 12:30:35;;;;;;;4.43;0.95;;;25.10;64.00;;;;;;4121858;28;20811;-38
2023/02/13 12:33:28;;;;;;;5.88;1.55;;;25.10;63.90;;;;;;4123540;28;20049;-37
2023/02/13 12:36:01;;;;;;;8.27;1.58;;;25.20;64.00;;;;;;4124815;28;20510;-38
2023/02/13 12:39:02;;;;;;;6.07;1.52;;;25.20;64.10;;;;;;4125813;28;20054;-37
2023/02/13 12:41:30;;;;;;;8.15;1.48;;;25.20;63.90;;;;;;4110549;28;20034;-38
2023/02/13 12:44:22;;;;;;;4.22;1.10;;;25.20;63.90;;;;;;4129870;28;20046;-36
2023/02/13 12:47:23;;;;;;;5.40;1.40;;;25.20;63.80;;;;;;4133561;28;20041;-37
2023/02/13 12:50:22;;;;;;;6.50;1.50;;;25.20;63.80;;;;;;4136657;28;20046;-36
2023/02/13 12:53:14;;;;;;;8.77;1.48;;;25.20;64.00;;;;;;4134968;28;20069;-37
2023/02/13 12:55:45;;;;;;;6.53;1.75;;;25.20;64.00;;;;;;4125327;28;20034;-38
2023/02/13 12:58:21;;;;;;;2.15;1.13;;;25.20;64.00;;;;;;4131605;28;20061;-38
2023/02/13 13:00:47;;;;;;;4.65;1.38;;;25.20;64.10;;;;;;4128799;28;20033;-37
2023/02/13 13:03:28;;;;;;;5.28;1.40;;;25.20;64.00;;;;;;4129980;28;20050;-38
2023/02/13 13:06:02;;;;;;;4.32;1.10;;;25.20;64.00;;;;;;4122200;28;20031;-38
2023/02/13 13:08:54;;;;;;;5.97;1.35;;;25.20;64.00;;;;;;4124186;28;20041;-38
2023/02/13 13:11:43;;;;;;;8.90;1.70;;;25.20;64.10;;;;;;4128269;28;20143;-39
2023/02/13 13:20:50;;;;;;;5.28;1.33;;;25.20;64.00;;;;;;4123189;28;20564;-37
2023/02/13 13:23:27;;;;;;;2.47;0.80;;;25.30;64.20;;;;;;4130699;28;20042;-38
2023/02/13 13:26:20;;;;;;;4.07;0.93;;;25.20;64.00;;;;;;4135528;28;20045;-38
2023/02/13 13:28:48;;;;;;;5.15;1.70;;;25.20;64.10;;;;;;4136327;28;20046;-42
2023/02/13 13:31:12;;;;;;;7.20;1.58;;;25.20;64.10;;;;;;4129152;28;20145;-37
2023/02/13 13:33:38;;;;;;;4.20;1.52;;;25.20;64.10;;;;;;4136710;28;20148;-42
2023/02/13 13:36:09;;;;;;;4.00;1.40;;;25.20;64.10;;;;;;4133553;28;20470;-37
2023/02/13 13:38:50;;;;;;;7.47;1.20;;;25.30;64.20;;;;;;4133080;28;20643;-38
2023/02/13 13:41:25;;;;;;;5.72;1.58;;;25.20;64.20;;;;;;4129900;28;20046;-38
2023/02/13 13:44:25;;;;;;;5.95;1.45;;;25.20;64.10;;;;;;4119450;28;20053;-39
2023/02/13 13:53:24;;;;;;;6.38;1.10;;;25.20;64.20;;;;;;4138649;28;20115;-37
2023/02/13 13:55:50;;;;;;;4.97;1.20;;;25.30;64.30;;;;;;4133578;28;20127;-37
2023/02/13 13:58:35;;;;;;;4.95;1.40;;;25.30;64.60;;;;;;4133343;28;20049;-38